Time;durP1;ratioP1;P1;durP2;ratioP2;P2;SDS_P1;SDS_P2;PMS_P1;PMS_P2;Temp;Humidity;BMP_temperature;BMP_pressure;BME280_temperature;BME280_humidity;BME280_pressure;Samples;Min_cycle;Max_cycle;Signal;HPM_P1;HPM_P2
2022/06/02 00:00:01;;;;;;;15.25;10.45;;;8.30;99.90;;;-144.05;89.34;125687.94;4964027;28;20019;-85
2022/06/02 00:02:42;;;;;;;15.05;9.93;;;8.30;99.90;;;-144.05;89.39;125687.94;4983979;28;20035;-87
2022/06/02 00:05:59;;;;;;;18.65;11.25;;;8.30;99.90;;;-144.05;89.45;125687.94;4964869;28;20031;-88
2022/06/02 00:09:14;;;;;;;15.93;10.73;;;8.30;99.90;;;-144.05;89.50;125687.94;4963357;28;20098;-86
2022/06/02 00:12:30;;;;;;;16.10;10.63;;;8.30;99.90;;;-144.05;89.49;125687.94;4960011;28;20070;-86
2022/06/02 00:15:27;;;;;;;17.70;11.48;;;8.30;99.90;;;-144.05;89.51;125687.94;4973843;28;20038;-86
2022/06/02 00:18:48;;;;;;;14.15;10.10;;;8.30;99.90;;;-144.05;89.44;125687.94;4957990;28;20302;-89
2022/06/02 00:21:54;;;;;;;15.65;10.63;;;8.20;99.90;;;-144.05;89.42;125687.94;4958746;29;20118;-89
2022/06/02 00:24:40;;;;;;;14.82;10.05;;;8.20;99.90;;;-144.05;89.24;125687.94;4961475;28;20717;-89
2022/06/02 00:27:36;;;;;;;14.10;10.48;;;8.10;99.90;;;-144.05;89.37;125687.94;4980464;28;20039;-90
2022/06/02 00:30:39;;;;;;;13.02;10.20;;;8.10;99.90;;;-144.05;89.18;125687.94;4965691;28;20091;-86
2022/06/02 00:33:46;;;;;;;14.57;10.02;;;8.00;99.90;;;-144.05;89.26;125687.94;4979188;28;20106;-88
2022/06/02 00:36:38;;;;;;;16.55;10.93;;;7.90;99.90;;;-144.05;89.56;125687.94;4979473;28;20097;-88
2022/06/02 00:39:08;;;;;;;17.30;11.18;;;7.90;99.90;;;-144.05;89.79;125687.94;4961879;28;20027;-89
2022/06/02 00:41:54;;;;;;;20.08;13.05;;;7.90;99.90;;;-144.05;90.26;125687.94;4979558;28;20031;-89
2022/06/02 00:44:55;;;;;;;18.50;12.15;;;7.90;99.90;;;-144.05;89.85;125687.94;4979634;28;20047;-87
2022/06/02 00:47:46;;;;;;;16.73;11.60;;;7.90;99.90;;;-144.05;89.83;125687.94;4966890;28;20095;-86
2022/06/02 00:50:38;;;;;;;17.80;12.07;;;7.90;99.90;;;-144.05;89.54;125687.94;4983804;28;20415;-86
2022/06/02 00:57:30;;;;;;;16.25;11.60;;;7.80;99.90;;;-144.05;89.61;125687.94;4982392;28;20027;-87
2022/06/02 00:57:30;;;;;;;15.63;10.60;;;7.70;99.90;;;-144.05;89.68;125687.94;4964872;28;20027;-90
2022/06/02 01:00:14;;;;;;;14.32;10.60;;;7.60;99.90;;;-144.05;89.56;125687.94;4977164;28;20046;-86
2022/06/02 01:03:26;;;;;;;16.33;11.23;;;7.50;99.90;;;-144.05;89.76;125687.94;4978738;28;20031;-90
2022/06/02 01:06:29;;;;;;;15.18;10.20;;;7.50;99.90;;;-144.05;89.84;125687.94;4961397;28;20031;-88
2022/06/02 01:09:32;;;;;;;15.35;11.13;;;7.40;99.90;;;-144.05;89.84;125687.94;4990585;28;20019;-85
2022/06/02 01:13:10;;;;;;;19.88;12.63;;;7.40;99.90;;;-144.05;90.21;125687.94;4985095;28;20050;-87
2022/06/02 01:16:06;;;;;;;19.65;11.38;;;7.40;99.90;;;-144.05;90.07;125687.94;4965878;28;20035;-87
2022/06/02 01:19:21;;;;;;;20.73;12.15;;;7.40;99.90;;;-144.05;90.21;125687.94;4977604;28;20447;-87
2022/06/02 01:22:29;;;;;;;20.05;12.13;;;7.50;99.90;;;-144.05;90.32;125687.94;4959844;28;20035;-84
2022/06/02 01:25:41;;;;;;;18.70;11.80;;;7.50;99.90;;;-144.05;90.09;125687.94;4974626;28;20433;-88
2022/06/02 01:28:25;;;;;;;17.13;11.32;;;7.50;99.90;;;-144.05;90.21;125687.94;4973042;28;20059;-86
2022/06/02 01:31:32;;;;;;;20.52;11.77;;;7.40;99.90;;;-144.05;90.53;125687.94;4972973;28;20126;-88
2022/06/02 01:34:53;;;;;;;24.52;13.98;;;7.40;99.90;;;-144.05;90.72;125687.94;4954917;28;20023;-86
2022/06/02 01:37:47;;;;;;;23.00;13.55;;;7.50;99.90;;;-144.05;90.67;125687.94;4955608;29;20039;-87
2022/06/02 01:41:02;;;;;;;18.95;13.30;;;7.50;99.90;;;-144.05;90.64;125687.94;4957155;28;20043;-85
2022/06/02 01:43:59;;;;;;;21.83;14.13;;;7.50;99.90;;;-144.05;90.78;125687.94;4971987;28;20166;-86
2022/06/02 01:46:44;;;;;;;18.10;13.70;;;7.40;99.90;;;-144.05;90.69;125687.94;4956043;29;20369;-87
2022/06/02 01:50:15;;;;;;;17.30;12.55;;;7.40;99.90;;;-144.05;90.54;125687.94;4956420;28;20506;-89
2022/06/02 01:53:40;;;;;;;21.38;12.57;;;7.40;99.90;;;-144.05;90.55;125687.94;4973046;28;20510;-87
2022/06/02 01:56:46;;;;;;;17.77;11.98;;;7.40;99.90;;;-144.05;90.64;125687.94;4957545;29;20047;-86
2022/06/02 01:59:52;;;;;;;19.60;12.63;;;7.40;99.90;;;-144.05;90.68;125687.94;4973311;28;20447;-85
2022/06/02 02:02:57;;;;;;;17.40;10.85;;;7.30;99.90;;;-144.05;90.59;125687.94;4972400;28;20099;-86
2022/06/02 02:06:26;;;;;;;18.42;11.93;;;7.30;99.90;;;-144.05;90.50;125687.94;4987830;28;20099;-89
2022/06/02 02:09:48;;;;;;;16.30;10.98;;;7.20;99.90;;;-144.05;90.44;125687.94;4954878;29;20035;-85
2022/06/02 02:12:40;;;;;;;17.15;11.20;;;7.00;99.90;;;-144.05;90.46;125687.94;4973762;28;20039;-87
2022/06/02 02:15:45;;;;;;;15.45;11.00;;;6.90;99.90;;;-144.05;90.49;125687.94;4956437;28;20031;-86
2022/06/02 02:18:37;;;;;;;18.13;10.98;;;6.90;99.90;;;-144.05;90.37;125687.94;4966908;28;20027;-88
2022/06/02 02:21:50;;;;;;;18.27;12.20;;;6.90;99.90;;;-144.05;90.53;125687.94;4974764;28;20059;-87
2022/06/02 02:25:10;;;;;;;16.25;11.88;;;6.80;99.90;;;-144.05;90.47;125687.94;4972567;28;20090;-87
2022/06/02 02:28:13;;;;;;;19.42;12.15;;;6.80;99.90;;;-144.05;90.64;125687.94;4973334;28;20027;-88
2022/06/02 02:31:33;;;;;;;17.10;11.88;;;6.80;99.90;;;-144.05;90.39;125687.94;4955158;28;20027;-86
2022/06/02 02:34:43;;;;;;;16.70;10.80;;;6.70;99.90;;;-144.05;90.34;125687.94;4971119;28;20070;-86
2022/06/02 02:37:49;;;;;;;18.17;10.85;;;6.60;99.90;;;-144.05;90.30;125687.94;4971260;28;20035;-87
2022/06/02 02:40:51;;;;;;;18.23;11.00;;;6.50;99.90;;;-144.05;90.24;125687.94;4970875;28;20134;-87
2022/06/02 02:43:52;;;;;;;17.08;12.00;;;6.50;99.90;;;-144.05;90.79;125687.94;4955309;28;20027;-84
2022/06/02 02:47:00;;;;;;;16.48;11.20;;;6.40;99.90;;;-144.05;90.65;125687.94;4955294;28;20023;-87
2022/06/02 02:49:46;;;;;;;18.73;12.18;;;6.40;99.90;;;-144.05;90.53;125687.94;4956241;28;20031;-86
2022/06/02 02:53:06;;;;;;;19.00;12.25;;;6.40;99.90;;;-144.05;90.93;125687.94;4956864;29;20055;-87
2022/06/02 02:55:51;;;;;;;22.98;12.95;;;6.50;99.90;;;-144.05;90.81;125687.94;4955632;28;20034;-84
2022/06/02 02:58:49;;;;;;;18.65;12.73;;;6.50;99.90;;;-144.05;90.76;125687.94;4955834;28;20066;-89
2022/06/02 03:01:34;;;;;;;19.80;12.45;;;6.40;99.90;;;-144.05;90.92;125687.94;4957277;28;20514;-89
2022/06/02 03:04:18;;;;;;;19.80;13.52;;;6.40;99.90;;;-144.05;90.90;125687.94;4956412;28;20042;-89
2022/06/02 03:06:54;;;;;;;22.95;13.50;;;6.40;99.90;;;-144.05;90.98;125687.94;4957510;28;20039;-86
2022/06/02 03:10:06;;;;;;;21.65;13.90;;;6.50;99.90;;;-144.05;91.28;125687.94;4976118;28;20331;-88
2022/06/02 03:12:48;;;;;;;20.38;14.13;;;6.50;99.90;;;-144.05;90.98;125687.94;4976485;28;20138;-88
2022/06/02 03:15:24;;;;;;;21.25;14.60;;;6.50;99.90;;;-144.05;91.23;125687.94;4976922;28;20517;-86
2022/06/02 03:18:31;;;;;;;;;;;6.50;99.90;;;-144.05;91.30;125687.94;4959993;28;20039;-88
2022/06/02 03:21:11;;;;;;;22.03;13.63;;;6.50;99.90;;;-144.05;91.08;125687.94;4943351;29;19946;-88
2022/06/02 03:24:13;;;;;;;22.60;13.93;;;6.60;99.90;;;-144.05;91.15;125687.94;4980766;28;20074;-84
2022/06/02 03:27:14;;;;;;;24.13;15.05;;;6.60;99.90;;;-144.05;91.11;125687.94;4962461;28;20065;-86
2022/06/02 03:30:18;;;;;;;21.80;14.40;;;6.60;99.90;;;-144.05;91.19;125687.94;4977273;28;20082;-86
2022/06/02 03:33:44;;;;;;;23.70;14.63;;;6.60;99.90;;;-144.05;91.21;125687.94;4961303;28;20062;-85
2022/06/02 03:36:41;;;;;;;25.65;15.93;;;6.60;99.90;;;-144.05;90.98;125687.94;4959059;28;20051;-86
2022/06/02 03:39:38;;;;;;;25.92;15.00;;;6.60;99.90;;;-144.05;90.83;125687.94;4976404;28;20130;-83
2022/06/02 03:42:25;;;;;;;25.50;15.57;;;6.60;99.90;;;-144.05;91.18;125687.94;4975218;28;20377;-85
2022/06/02 03:45:32;;;;;;;25.25;15.07;;;6.60;99.90;;;-144.05;91.35;125687.94;4976145;28;20414;-87
2022/06/02 03:48:29;;;;;;;23.23;14.60;;;6.60;99.90;;;-144.05;91.11;125687.94;4960560;29;20027;-84
2022/06/02 03:51:29;;;;;;;20.75;14.10;;;6.60;99.90;;;-144.05;91.05;125687.94;4958065;28;20035;-85
2022/06/02 03:54:34;;;;;;;23.65;14.70;;;6.60;99.90;;;-144.05;91.19;125687.94;4966807;28;20058;-87
2022/06/02 03:57:35;;;;;;;22.42;14.73;;;6.50;99.90;;;-144.05;91.40;125687.94;4967186;28;20031;-87
2022/06/02 04:00:52;;;;;;;24.52;15.38;;;6.50;99.90;;;-144.05;91.49;125687.94;4983868;28;20035;-87
2022/06/02 04:03:57;;;;;;;24.55;15.10;;;6.50;99.90;;;-144.05;91.72;125687.94;4965746;28;20075;-85
2022/06/02 04:07:28;;;;;;;24.35;15.93;;;6.60;99.90;;;-144.05;91.32;125687.94;4987616;28;20028;-87
2022/06/02 04:10:42;;;;;;;26.20;15.65;;;6.60;99.90;;;-144.05;91.70;125687.94;4980606;28;20095;-85
2022/06/02 04:14:09;;;;;;;30.70;18.17;;;6.70;99.90;;;-144.05;91.58;125687.94;4961255;28;20134;-85
2022/06/02 04:17:18;;;;;;;33.85;17.95;;;6.80;99.90;;;-144.05;91.78;125687.94;4914189;29;20043;-87
2022/06/02 04:20:42;;;;;;;28.83;18.35;;;6.90;99.90;;;-144.05;91.71;125687.94;4954627;29;20044;-86
2022/06/02 04:23:45;;;;;;;33.95;18.13;;;7.00;99.90;;;-144.05;91.62;125687.94;4951656;29;20042;-84
2022/06/02 04:27:01;;;;;;;37.22;19.52;;;7.10;99.90;;;-144.05;91.41;125687.94;4952966;29;20024;-87
2022/06/02 04:30:15;;;;;;;33.42;18.60;;;7.20;99.90;;;-144.05;91.28;125687.94;4951838;29;20051;-87
2022/06/02 04:33:09;;;;;;;33.58;20.77;;;7.30;99.90;;;-144.05;91.29;125687.94;4960506;28;20039;-84
2022/06/02 04:36:54;;;;;;;37.53;19.58;;;7.40;99.90;;;-144.05;91.18;125687.94;4942618;29;20064;-84
2022/06/02 04:39:50;;;;;;;39.10;22.80;;;7.60;99.90;;;-144.05;90.90;125687.94;4912543;29;20039;-85
2022/06/02 04:43:00;;;;;;;38.17;23.42;;;7.80;99.90;;;-144.05;90.73;125687.94;4894546;29;20032;-83
2022/06/02 04:46:17;;;;;;;37.67;22.85;;;8.00;99.90;;;-144.05;90.38;125687.94;4945911;29;20040;-88
2022/06/02 04:49:53;;;;;;;39.40;23.85;;;8.20;99.90;;;-144.05;89.97;125687.94;4946727;29;20032;-86
2022/06/02 04:53:18;;;;;;;36.88;23.60;;;8.40;99.90;;;-144.05;89.12;125687.94;4893995;29;20074;-85
2022/06/02 04:56:41;;;;;;;34.47;21.27;;;8.60;99.90;;;-144.05;88.28;125687.94;4946289;28;20028;-87
2022/06/02 04:59:32;;;;;;;30.42;22.13;;;8.70;99.90;;;-144.05;88.15;125687.94;4963340;28;20032;-84
2022/06/02 05:02:00;;;;;;;32.70;20.67;;;8.90;99.90;;;-144.05;87.63;125687.94;4947165;29;20038;-87
2022/06/02 05:05:14;;;;;;;32.20;19.80;;;9.10;99.90;;;-144.05;87.52;125687.94;4947312;29;20095;-86
2022/06/02 05:08:23;;;;;;;27.98;18.25;;;9.30;99.90;;;-144.05;86.77;125687.94;4947022;28;20035;-89
2022/06/02 05:11:10;;;;;;;24.30;16.30;;;9.60;99.90;;;-144.05;86.28;125687.94;4954291;29;20027;-86
2022/06/02 05:14:58;;;;;;;22.80;16.00;;;9.80;99.90;;;-144.05;85.76;125687.94;4968925;28;20091;-86
2022/06/02 05:18:11;;;;;;;27.13;17.50;;;10.00;99.90;;;-144.05;83.95;125687.94;4962168;28;20143;-83
2022/06/02 05:21:25;;;;;;;27.17;17.88;;;10.40;99.90;;;-144.05;83.20;125687.94;4983796;28;20035;-85
2022/06/02 05:24:39;;;;;;;24.05;17.70;;;10.70;99.90;;;-144.05;81.15;125687.94;4981424;28;20046;-85
2022/06/02 05:27:44;;;;;;;23.63;16.98;;;11.00;99.90;;;-144.05;79.82;125687.94;4980080;28;20086;-87
2022/06/02 05:30:40;;;;;;;18.45;13.88;;;11.30;99.90;;;-144.05;78.27;125687.94;4978151;28;20407;-87
2022/06/02 05:33:55;;;;;;;20.17;14.85;;;11.70;99.90;;;-144.05;76.69;125687.94;4974205;28;20031;-88
2022/06/02 05:36:24;;;;;;;21.58;14.82;;;12.00;99.90;;;-144.05;75.11;125687.94;4976111;28;20062;-86
2022/06/02 05:39:46;;;;;;;19.75;13.38;;;12.40;99.90;;;-144.05;73.80;125687.94;4974102;28;20031;-85
2022/06/02 05:42:28;;;;;;;20.33;14.55;;;12.70;99.90;;;-144.05;71.43;125687.94;4983412;28;20443;-83
2022/06/02 05:45:25;;;;;;;19.85;14.50;;;13.10;99.90;;;-144.05;69.77;125687.94;4982289;28;20035;-86
2022/06/02 05:48:52;;;;;;;19.50;14.30;;;13.30;99.90;;;-144.05;68.94;125687.94;4965510;28;20020;-87
2022/06/02 05:51:38;;;;;;;20.40;13.93;;;13.60;99.90;;;-144.05;68.37;125687.94;4978259;28;20031;-87
2022/06/02 05:54:58;;;;;;;19.90;14.95;;;13.80;99.90;;;-144.05;66.88;125687.94;4980800;28;20065;-88
2022/06/02 05:58:11;;;;;;;25.30;16.10;;;14.00;99.90;;;-144.05;66.68;125687.94;4954655;29;20050;-87
2022/06/02 06:02:02;;;;;;;;;;;;;;;;;;;;;
2022/06/02 06:05:23;;;;;;;15.10;11.75;;;14.40;99.90;;;-144.05;64.89;125687.94;4971140;28;20050;-87
2022/06/02 06:08:15;;;;;;;13.23;10.35;;;14.70;99.90;;;-144.05;63.14;125687.94;4971701;28;20550;-86
2022/06/02 06:11:47;;;;;;;13.88;10.88;;;14.90;99.90;;;-144.05;61.70;125687.94;4949447;29;20108;-85
2022/06/02 06:14:25;;;;;;;13.30;10.52;;;15.20;99.90;;;-144.05;59.73;125687.94;4962377;28;20042;-86
2022/06/02 06:17:53;;;;;;;11.13;7.35;;;15.40;99.90;;;-144.05;60.59;125687.94;4964357;28;20065;-86
2022/06/02 06:21:00;;;;;;;10.32;7.80;;;15.70;99.90;;;-144.05;58.79;125687.94;4963533;29;20157;-85
2022/06/02 06:24:01;;;;;;;11.70;9.40;;;16.10;99.90;;;-144.05;57.68;125687.94;4962487;28;20039;-85
2022/06/02 06:27:43;;;;;;;13.02;9.85;;;16.40;99.90;;;-144.05;55.75;125687.94;4977367;28;20063;-89
2022/06/02 06:30:30;;;;;;;11.25;8.50;;;16.40;99.90;;;-144.05;55.70;125687.94;4944544;29;20031;-86
2022/06/02 06:33:17;;;;;;;12.68;9.48;;;16.80;99.90;;;-144.05;55.02;125687.94;4959849;28;20094;-85
2022/06/02 06:37:18;;;;;;;9.13;7.30;;;17.10;99.90;;;-144.05;51.57;125687.94;4957947;28;20091;-86
2022/06/02 06:40:29;;;;;;;7.82;5.60;;;17.20;99.90;;;-144.05;51.82;125687.94;4953944;28;20055;-86
2022/06/02 06:43:33;;;;;;;5.95;4.38;;;17.40;99.90;;;-144.05;51.02;125687.94;4958023;28;20027;-86
2022/06/02 06:46:17;;;;;;;7.65;4.80;;;17.60;99.90;;;-144.05;49.08;125687.94;4958048;28;20038;-86
2022/06/02 06:48:58;;;;;;;6.35;4.00;;;17.90;99.90;;;-144.05;48.08;125687.94;4959017;28;20038;-84
2022/06/02 06:52:11;;;;;;;6.00;4.32;;;18.00;99.90;;;-144.05;47.53;125687.94;4957900;28;20059;-86
2022/06/02 06:55:17;;;;;;;7.57;5.05;;;17.70;99.90;;;-144.05;46.79;125687.94;4975677;28;20119;-85
2022/06/02 06:58:39;;;;;;;5.72;4.20;;;17.90;99.90;;;-144.05;46.26;125687.94;4963897;29;20062;-86
2022/06/02 07:01:20;;;;;;;8.88;4.75;;;18.00;99.90;;;-144.05;46.28;125687.94;4963172;29;20067;-88
2022/06/02 07:04:15;;;;;;;6.25;4.97;;;18.30;99.90;;;-144.05;44.39;125687.94;4977876;28;20059;-85
2022/06/02 07:07:14;;;;;;;7.35;4.40;;;18.40;99.90;;;-144.05;45.25;125687.94;4957699;29;20067;-86
2022/06/02 07:09:57;;;;;;;7.03;4.57;;;18.60;99.90;;;-144.05;44.77;125687.94;4958096;29;20036;-87
2022/06/02 07:13:03;;;;;;;5.05;3.40;;;19.10;99.90;;;-144.05;43.39;125687.94;4956321;28;20315;-86
2022/06/02 07:15:46;;;;;;;5.97;3.63;;;19.30;99.90;;;-144.05;42.45;125687.94;4956132;29;20039;-85
2022/06/02 07:18:35;;;;;;;12.88;4.80;;;19.60;99.90;;;-144.05;40.51;125687.94;4957827;28;20041;-86
2022/06/02 07:21:21;;;;;;;15.45;4.25;;;19.60;98.40;;;-144.05;40.88;125687.94;4956182;28;20105;-85
2022/06/02 07:24:17;;;;;;;8.57;5.35;;;19.90;99.90;;;-144.05;38.63;125687.94;4955984;28;20038;-86
2022/06/02 07:27:10;;;;;;;9.02;4.40;;;20.40;93.40;;;-144.05;38.32;125687.94;4957203;28;20049;-86
2022/06/02 07:30:13;;;;;;;6.43;4.60;;;20.70;91.80;;;-144.05;38.70;125687.94;4979122;28;20038;-86
2022/06/02 07:33:22;;;;;;;7.10;4.10;;;21.00;93.40;;;-144.05;37.73;125687.94;4963827;28;20055;-85
2022/06/02 07:36:26;;;;;;;6.57;3.28;;;21.30;89.30;;;-144.05;37.77;125687.94;4980184;28;20376;-87
2022/06/02 07:39:26;;;;;;;6.88;4.55;;;21.70;89.00;;;-144.05;37.27;125687.94;4980708;28;20050;-85
2022/06/02 07:42:51;;;;;;;4.93;3.60;;;21.50;84.20;;;-144.05;36.86;125687.94;4980329;28;20440;-87
2022/06/02 07:46:20;;;;;;;8.23;3.42;;;21.50;81.30;;;-144.05;35.41;125687.94;4965064;28;20161;-86
2022/06/02 07:49:10;;;;;;;5.55;2.55;;;21.40;76.90;;;-144.05;36.82;125687.94;4980264;28;20396;-87
2022/06/02 07:52:32;;;;;;;4.75;3.13;;;21.20;81.20;;;-144.05;36.11;125687.94;4967761;28;20027;-86
2022/06/02 07:55:32;;;;;;;4.18;2.50;;;21.40;81.00;;;-144.05;36.87;125687.94;4977198;28;20115;-86
2022/06/02 07:58:38;;;;;;;4.60;2.60;;;21.60;83.00;;;-144.05;35.64;125687.94;4981099;28;20039;-87
2022/06/02 08:01:16;;;;;;;5.60;2.72;;;21.80;80.80;;;-144.05;35.89;125687.94;4983366;28;20031;-87
2022/06/02 08:04:30;;;;;;;3.00;2.70;;;21.70;79.50;;;-144.05;36.59;125687.94;4967988;28;20384;-88
2022/06/02 08:07:11;;;;;;;4.43;2.55;;;21.00;77.20;;;-144.05;39.16;125687.94;4971901;28;20039;-86
2022/06/02 08:10:16;;;;;;;5.30;2.83;;;19.70;88.60;;;-144.05;39.95;125687.94;4986211;28;20041;-87
2022/06/02 08:13:11;;;;;;;3.20;2.22;;;18.80;89.50;;;-144.05;41.50;125687.94;4982919;28;20027;-87
2022/06/02 08:16:02;;;;;;;3.58;2.70;;;18.10;97.60;;;-144.05;41.60;125687.94;4967122;28;20046;-86
2022/06/02 08:19:23;;;;;;;5.32;2.95;;;17.70;98.50;;;-144.05;41.63;125687.94;4970422;29;20031;-86
2022/06/02 08:21:57;;;;;;;4.10;2.67;;;17.40;99.90;;;-144.05;40.60;125687.94;4964977;28;20027;-88
2022/06/02 08:25:01;;;;;;;3.78;2.65;;;17.90;99.90;;;-144.05;40.17;125687.94;4965158;28;20041;-85
2022/06/02 08:28:01;;;;;;;3.72;2.03;;;18.30;99.10;;;-144.05;38.29;125687.94;4965735;29;20039;-84
2022/06/02 08:31:10;;;;;;;3.08;2.53;;;19.40;94.50;;;-144.05;37.34;125687.94;4964812;28;20047;-87
2022/06/02 08:34:05;;;;;;;2.38;1.65;;;20.60;90.60;;;-144.05;35.62;125687.94;4964843;28;20032;-86
2022/06/02 08:37:13;;;;;;;3.90;2.13;;;21.00;81.40;;;-144.05;36.15;125687.94;4975437;28;20085;-87
2022/06/02 08:40:33;;;;;;;5.97;2.70;;;20.90;81.80;;;-144.05;35.88;125687.94;4966172;28;20023;-87
2022/06/02 08:44:12;;;;;;;3.33;2.47;;;20.90;77.80;;;-144.05;38.08;125687.94;4958579;28;20031;-86
2022/06/02 08:47:23;;;;;;;4.32;2.90;;;20.20;85.30;;;-144.05;40.08;125687.94;4960023;29;20118;-87
2022/06/02 08:50:47;;;;;;;5.47;2.72;;;19.00;94.30;;;-144.05;42.18;125687.94;4959593;29;20050;-85
2022/06/02 08:54:15;;;;;;;5.32;2.60;;;18.10;99.90;;;-144.05;43.26;125687.94;4961444;28;20039;-87
2022/06/02 08:57:27;;;;;;;3.90;2.88;;;17.60;99.90;;;-144.05;43.88;125687.94;4959610;28;20098;-84
2022/06/02 09:00:09;;;;;;;5.10;3.10;;;17.40;99.90;;;-144.05;43.87;125687.94;4959537;29;20034;-85
2022/06/02 09:03:14;;;;;;;3.88;2.80;;;17.30;99.90;;;-144.05;44.97;125687.94;4958366;28;20134;-84
2022/06/02 09:06:02;;;;;;;4.55;2.80;;;17.00;99.90;;;-144.05;44.43;125687.94;4958341;29;20050;-84
2022/06/02 09:09:21;;;;;;;5.00;2.75;;;16.70;99.90;;;-144.05;45.76;125687.94;4959837;28;20384;-84
2022/06/02 09:12:48;;;;;;;3.72;2.50;;;16.50;99.90;;;-144.05;45.49;125687.94;4960327;28;20117;-86
2022/06/02 09:15:38;;;;;;;4.03;2.33;;;16.30;99.90;;;-144.05;46.14;125687.94;4975511;28;20046;-84
2022/06/02 09:18:13;;;;;;;5.03;2.30;;;16.20;99.90;;;-144.05;45.36;125687.94;4959093;29;20038;-85
2022/06/02 09:21:13;;;;;;;3.40;1.77;;;16.20;99.90;;;-144.05;44.39;125687.94;4973692;28;20066;-85
2022/06/02 12:02:38;;;;;;;3.85;1.92;;;20.20;61.20;;;-144.05;30.25;125687.94;5006601;28;20073;-88
2022/06/02 12:06:30;;;;;;;3.50;2.42;;;21.20;57.20;;;-144.05;29.24;125687.94;4985323;28;20101;-89
2022/06/02 12:18:22;;;;;;;4.75;4.35;;;22.90;55.80;;;-144.05;31.95;125687.94;4962062;28;20046;-89
2022/06/02 12:21:42;;;;;;;3.90;3.40;;;21.30;58.80;;;-144.05;32.24;125687.94;4953977;29;20331;-90
2022/06/02 12:25:30;;;;;;;4.20;3.45;;;21.80;60.90;;;-144.05;29.70;125687.94;4961210;28;20035;-89
2022/06/02 12:28:45;;;;;;;;;;;;;;;;;;;;;
2022/06/02 12:32:10;;;;;;;4.10;3.30;;;22.00;57.40;;;-144.05;30.57;125687.94;4961650;29;20427;-88
2022/06/02 12:35:28;;;;;;;4.70;3.65;;;21.70;57.90;;;-144.05;32.17;125687.94;4960857;28;20031;-86
2022/06/02 12:38:47;;;;;;;3.50;2.45;;;21.10;60.00;;;-144.05;32.31;125687.94;4969899;28;20103;-85
2022/06/02 12:41:27;;;;;;;3.28;2.95;;;20.70;60.30;;;-144.05;32.11;125687.94;4972855;28;20510;-87
2022/06/02 12:44:53;;;;;;;4.75;3.13;;;20.70;60.80;;;-144.05;31.60;125687.94;4961895;28;20042;-87
2022/06/02 12:48:38;;;;;;;3.63;3.05;;;21.40;59.90;;;-144.05;29.45;125687.94;4958206;28;20058;-87
2022/06/02 12:52:22;;;;;;;3.90;3.53;;;22.40;56.90;;;-144.05;29.33;125687.94;4959725;28;20035;-86
2022/06/02 12:55:41;;;;;;;3.40;2.83;;;23.70;56.80;;;-144.05;28.12;125687.94;4959321;28;20101;-89
2022/06/02 12:59:04;;;;;;;4.65;3.63;;;24.60;53.90;;;-144.05;28.00;125687.94;4957479;28;20034;-86
2022/06/02 13:02:05;;;;;;;7.63;4.68;;;24.30;52.20;;;-144.05;29.06;125687.94;4957635;28;20046;-87
2022/06/02 13:05:37;;;;;;;4.53;4.10;;;23.50;53.90;;;-144.05;29.59;125687.94;4941437;29;20126;-87
2022/06/02 13:09:01;;;;;;;6.68;4.32;;;22.30;55.30;;;-144.05;30.75;125687.94;4957461;29;20035;-89
2022/06/02 13:12:27;;;;;;;4.50;3.80;;;21.40;57.90;;;-144.05;31.25;125687.94;4965162;28;20022;-85
2022/06/02 13:15:47;;;;;;;4.30;3.90;;;20.90;58.80;;;-144.05;31.10;125687.94;4977389;28;20038;-86
2022/06/02 13:19:22;;;;;;;4.78;4.38;;;21.00;58.70;;;-144.05;29.93;125687.94;4974537;28;20042;-87
2022/06/02 13:22:26;;;;;;;3.72;3.42;;;21.60;56.60;;;-144.05;28.89;125687.94;4976562;28;20193;-86
2022/06/02 13:25:10;;;;;;;4.47;3.70;;;22.30;55.30;;;-144.05;29.96;125687.94;4975748;28;20051;-85
2022/06/02 13:28:53;;;;;;;4.57;3.75;;;22.40;56.00;;;-144.05;29.23;125687.94;4976034;28;20062;-87
2022/06/02 13:32:02;;;;;;;4.78;3.75;;;22.70;54.90;;;-144.05;28.27;125687.94;4956328;29;20027;-88
2022/06/02 13:35:16;;;;;;;4.35;3.40;;;22.90;53.80;;;-144.05;28.79;125687.94;4956253;29;20118;-87
2022/06/02 13:38:13;;;;;;;4.15;3.00;;;23.00;53.30;;;-144.05;28.05;125687.94;4941400;29;20096;-86
2022/06/02 13:41:17;;;;;;;2.30;2.10;;;23.30;52.40;;;-144.05;28.40;125687.94;4973289;28;20027;-87
2022/06/02 13:44:43;;;;;;;3.38;3.08;;;23.80;53.60;;;-144.05;28.38;125687.94;4961109;28;20026;-89
2022/06/02 13:48:02;;;;;;;3.25;2.95;;;24.10;51.90;;;-144.05;27.80;125687.94;4975966;28;20031;-87
2022/06/02 13:51:07;;;;;;;3.45;3.05;;;24.10;51.40;;;-144.05;28.72;125687.94;4976814;28;20041;-88
2022/06/02 13:57:42;;;;;;;4.75;2.92;;;23.90;50.20;;;-144.05;28.12;125687.94;4977232;28;20066;-84
2022/06/02 14:00:28;;;;;;;4.15;2.80;;;23.60;52.30;;;-144.05;27.58;125687.94;4968657;28;20134;-87
2022/06/02 14:03:45;;;;;;;3.80;2.55;;;23.30;50.90;;;-144.05;27.39;125687.94;4977860;28;20031;-86
2022/06/02 14:06:20;;;;;;;3.50;1.95;;;23.10;50.20;;;-144.05;28.21;125687.94;4973958;28;20035;-85
2022/06/02 14:10:46;;;;;;;;;;;;;;;;;;;;;
2022/06/02 14:13:50;;;;;;;2.35;1.40;;;23.00;51.30;;;-144.05;28.17;125687.94;4961084;28;20565;-88
2022/06/02 14:17:43;;;;;;;2.53;1.40;;;23.00;52.60;;;-144.05;28.41;125687.94;4977827;28;20503;-87
2022/06/02 14:21:39;;;;;;;2.08;1.08;;;23.10;52.20;;;-144.05;27.98;125687.94;4975868;28;20031;-85
2022/06/02 14:28:01;;;;;;;1.48;0.75;;;23.20;53.10;;;-144.05;29.03;125687.94;4977230;28;20062;-86
2022/06/02 14:35:41;;;;;;;;;;;;;;;;;;;;;
2022/06/02 14:38:27;;;;;;;1.75;1.20;;;23.70;49.70;;;-144.05;27.44;125687.94;4976961;28;20037;-87
2022/06/02 14:42:04;;;;;;;1.23;1.00;;;23.00;50.60;;;-144.05;27.86;125687.94;4975453;28;20053;-88
2022/06/02 14:45:30;;;;;;;1.35;1.23;;;22.90;50.10;;;-144.05;28.46;125687.94;4984639;28;20035;-84
2022/06/02 14:49:00;;;;;;;2.08;1.50;;;22.90;52.90;;;-144.05;28.37;125687.94;4990780;28;20068;-87
2022/06/02 14:51:45;;;;;;;2.58;1.52;;;23.00;51.90;;;-144.05;27.69;125687.94;4961408;28;20125;-88
2022/06/02 14:54:41;;;;;;;3.55;1.20;;;23.10;50.80;;;-144.05;27.76;125687.94;4975279;28;20487;-88
2022/06/02 14:58:12;;;;;;;2.30;1.48;;;22.90;51.10;;;-144.05;28.21;125687.94;4974574;28;20403;-87
2022/06/02 15:01:45;;;;;;;1.42;1.20;;;22.80;51.50;;;-144.05;28.29;125687.94;4974843;28;20031;-88
2022/06/02 15:04:44;;;;;;;2.33;1.13;;;22.70;51.80;;;-144.05;28.76;125687.94;4953089;28;20065;-85
2022/06/02 15:08:25;;;;;;;2.00;1.55;;;22.50;53.20;;;-144.05;28.43;125687.94;4973879;28;20126;-83
2022/06/02 15:11:33;;;;;;;1.77;1.30;;;22.60;52.40;;;-144.05;28.01;125687.94;4941086;28;20039;-83
2022/06/02 15:15:07;;;;;;;1.10;0.90;;;22.40;51.80;;;-144.05;28.64;125687.94;4957780;28;20034;-86
2022/06/02 15:18:35;;;;;;;1.25;1.00;;;22.40;52.60;;;-144.05;27.75;125687.94;4930406;28;20043;-84
2022/06/02 15:21:47;;;;;;;2.28;0.95;;;22.50;51.80;;;-144.05;27.47;125687.94;4974332;28;20481;-90
2022/06/02 15:24:32;;;;;;;1.38;1.13;;;22.20;51.20;;;-144.05;27.56;125687.94;4976573;28;20045;-83
2022/06/02 15:27:39;;;;;;;4.22;1.05;;;22.00;51.00;;;-144.05;27.98;125687.94;4973878;28;20100;-88
2022/06/02 15:30:40;;;;;;;4.10;1.50;;;22.00;51.10;;;-144.05;29.17;125687.94;4975096;28;20117;-88
2022/06/02 15:34:07;;;;;;;2.28;1.30;;;22.00;53.60;;;-144.05;29.08;125687.94;4974325;28;20122;-87
2022/06/02 15:37:17;;;;;;;1.05;0.95;;;22.00;53.50;;;-144.05;28.07;125687.94;4974924;28;20061;-86
2022/06/02 15:40:28;;;;;;;1.52;1.38;;;21.90;51.60;;;-144.05;29.53;125687.94;4973477;28;20026;-87
2022/06/02 15:43:31;;;;;;;2.20;1.60;;;21.90;54.10;;;-144.05;29.46;125687.94;4965086;28;20487;-86
2022/06/02 15:46:56;;;;;;;2.35;1.45;;;21.70;54.20;;;-144.05;29.52;125687.94;4972723;28;20444;-87